Time;durP1;ratioP1;P1;durP2;ratioP2;P2;SDS_P1;SDS_P2;PMS_P1;PMS_P2;Temp;Humidity;BMP_temperature;BMP_pressure;BME280_temperature;BME280_humidity;BME280_pressure;Samples;Min_cycle;Max_cycle;Signal;HPM_P1;HPM_P2
2023/05/11 00:00:46;;;;;;;2.60;1.33;;;;;;;12.06;100.00;96073.59;5043690;28;20233;-69
2023/05/11 00:03:12;;;;;;;2.70;1.70;;;;;;;12.04;100.00;96070.31;5043378;28;20216;-70
2023/05/11 00:05:39;;;;;;;2.70;1.73;;;;;;;11.95;100.00;96074.94;5043539;28;20217;-70
2023/05/11 00:08:07;;;;;;;1.10;0.93;;;;;;;12.13;100.00;96062.09;5042193;28;20202;-69
2023/05/11 00:10:33;;;;;;;1.67;1.57;;;;;;;12.03;100.00;96068.66;5043305;28;20201;-69
2023/05/11 00:13:00;;;;;;;1.40;1.10;;;;;;;12.08;100.00;96059.19;5043551;28;20197;-68
2023/05/11 00:15:26;;;;;;;14.80;1.10;;;;;;;12.05;100.00;96069.31;5043074;28;20228;-69
2023/05/11 00:17:53;;;;;;;3.67;1.27;;;;;;;12.12;100.00;96068.38;5042367;28;20221;-68
2023/05/11 00:20:20;;;;;;;1.50;1.40;;;;;;;12.16;100.00;96058.25;5043328;28;20228;-69
2023/05/11 00:22:47;;;;;;;1.43;1.30;;;;;;;12.06;100.00;96060.38;5042921;28;20205;-70
2023/05/11 00:25:15;;;;;;;1.10;0.93;;;;;;;12.11;100.00;96058.00;5043188;28;20205;-68
2023/05/11 00:27:44;;;;;;;1.70;1.53;;;;;;;12.06;100.00;96053.25;5042656;28;20228;-70
2023/05/11 00:30:12;;;;;;;17.57;1.53;;;;;;;11.90;100.00;96056.19;5043022;28;20201;-70
2023/05/11 00:32:38;;;;;;;2.03;1.47;;;;;;;11.85;100.00;96052.47;5043204;28;20585;-70
2023/05/11 00:35:05;;;;;;;1.93;1.53;;;;;;;11.86;100.00;96057.56;5043139;28;20251;-69
2023/05/11 00:37:32;;;;;;;0.80;0.77;;;;;;;11.75;100.00;96058.06;5042109;28;20225;-68
2023/05/11 00:39:58;;;;;;;1.23;0.90;;;;;;;11.90;100.00;96060.63;5042952;28;20602;-68
2023/05/11 00:42:26;;;;;;;3.80;1.43;;;;;;;11.98;100.00;96060.53;5042848;28;20609;-69
2023/05/11 00:44:52;;;;;;;2.13;1.83;;;;;;;12.03;100.00;96060.75;5042716;28;20412;-68
2023/05/11 00:47:19;;;;;;;1.50;1.00;;;;;;;12.03;100.00;96042.25;5042292;28;20232;-68
2023/05/11 00:49:46;;;;;;;1.80;1.00;;;;;;;12.04;100.00;96052.66;5042367;28;20634;-68
2023/05/11 00:52:12;;;;;;;1.00;1.00;;;;;;;12.06;100.00;96045.34;5042516;28;20232;-68
2023/05/11 00:54:40;;;;;;;1.23;0.80;;;;;;;11.99;100.00;96041.84;5042744;28;20207;-68
2023/05/11 00:57:06;;;;;;;2.00;1.17;;;;;;;11.98;100.00;96042.03;5042367;28;20220;-67
2023/05/11 00:59:35;;;;;;;0.97;0.80;;;;;;;12.05;100.00;96048.19;5042127;28;20670;-68
2023/05/11 01:02:03;;;;;;;1.63;1.00;;;;;;;11.99;100.00;96049.78;5042341;28;20209;-68
2023/05/11 01:04:30;;;;;;;3.37;1.57;;;;;;;11.98;100.00;96052.59;5042061;28;20213;-68
2023/05/11 01:07:04;;;;;;;0.80;0.80;;;;;;;12.09;100.00;96042.31;5042327;28;20315;-68
2023/05/11 01:09:42;;;;;;;1.47;1.37;;;;;;;12.07;100.00;96041.69;5042060;28;20208;-68
2023/05/11 01:12:15;;;;;;;1.40;1.00;;;;;;;12.10;100.00;96045.78;5041929;28;20296;-68
2023/05/11 01:14:49;;;;;;;1.33;0.77;;;;;;;12.04;100.00;96039.44;5042476;28;20205;-68
2023/05/11 01:17:21;;;;;;;0.70;0.70;;;;;;;11.97;100.00;96038.56;5041700;28;20255;-68
2023/05/11 01:19:55;;;;;;;2.15;1.10;;;;;;;11.90;100.00;96042.97;5042376;28;20376;-68
2023/05/11 01:22:33;;;;;;;1.37;0.90;;;;;;;11.84;100.00;96045.56;5042334;28;20226;-69
2023/05/11 01:25:12;;;;;;;1.13;0.80;;;;;;;12.05;100.00;96038.41;5042401;28;20212;-68
2023/05/11 01:27:56;;;;;;;1.50;1.10;;;;;;;12.05;100.00;96045.53;5041926;28;20228;-68
2023/05/11 01:30:28;;;;;;;1.50;0.90;;;;;;;12.09;100.00;96044.94;5042184;28;20220;-68
2023/05/11 01:32:59;;;;;;;0.93;0.83;;;;;;;12.03;100.00;96039.63;5042275;28;20212;-68
2023/05/11 01:35:28;;;;;;;1.73;1.20;;;;;;;12.02;100.00;96043.28;5042300;28;20205;-68
2023/05/11 01:37:57;;;;;;;1.10;0.83;;;;;;;11.96;100.00;96044.84;5041609;28;20225;-68
2023/05/11 01:40:28;;;;;;;1.23;1.13;;;;;;;12.00;100.00;96037.38;5042339;28;20247;-68
2023/05/11 01:42:59;;;;;;;3.33;1.20;;;;;;;11.96;100.00;96049.31;5041848;28;20215;-68
2023/05/11 01:45:29;;;;;;;1.20;1.10;;;;;;;12.00;100.00;96042.66;5042362;28;20209;-67
2023/05/11 01:47:57;;;;;;;1.00;0.90;;;;;;;11.98;100.00;96037.56;5041431;28;20198;-68
2023/05/11 01:50:26;;;;;;;1.80;1.00;;;;;;;11.96;100.00;96046.69;5042153;28;20200;-68
2023/05/11 01:52:53;;;;;;;1.80;0.70;;;;;;;11.89;100.00;96045.78;5041909;28;20208;-68
2023/05/11 01:55:22;;;;;;;1.20;0.83;;;;;;;11.96;100.00;96051.97;5041820;28;20212;-68
2023/05/11 01:57:51;;;;;;;0.77;0.77;;;;;;;11.86;100.00;96046.19;5041571;28;20229;-68
2023/05/11 02:00:18;;;;;;;1.67;1.17;;;;;;;11.99;100.00;96049.78;5041881;28;20193;-68
2023/05/11 02:02:48;;;;;;;1.10;0.90;;;;;;;12.02;100.00;96048.56;5041802;28;20666;-68
2023/05/11 02:05:18;;;;;;;0.70;0.70;;;;;;;11.92;100.00;96053.34;5041882;28;20201;-68
2023/05/11 02:07:47;;;;;;;0.70;0.70;;;;;;;11.87;100.00;96045.19;5041169;28;20365;-68
2023/05/11 02:10:16;;;;;;;0.83;0.80;;;;;;;11.80;100.00;96050.41;5041543;28;20208;-68
2023/05/11 02:12:44;;;;;;;0.83;0.83;;;;;;;11.91;100.00;96041.16;5041655;28;20659;-69
2023/05/11 02:15:12;;;;;;;1.00;0.90;;;;;;;11.93;100.00;96050.50;5041576;28;20201;-68
2023/05/11 02:17:40;;;;;;;1.17;1.07;;;;;;;11.89;100.00;96048.44;5041534;28;20240;-68
2023/05/11 02:20:10;;;;;;;3.10;1.07;;;;;;;11.98;100.00;96048.13;5041950;28;20201;-69
2023/05/11 02:22:38;;;;;;;1.47;0.93;;;;;;;11.87;100.00;96045.97;5039960;28;20202;-68
2023/05/11 02:25:06;;;;;;;2.77;1.10;;;;;;;11.95;100.00;96042.41;5044006;28;20209;-69
2023/05/11 02:27:34;;;;;;;2.77;1.00;;;;;;;11.91;100.00;96041.16;5044793;28;20213;-69
2023/05/11 02:30:01;;;;;;;0.70;0.67;;;;;;;11.88;100.00;96038.91;5044661;28;20286;-68
2023/05/11 02:32:30;;;;;;;2.07;1.23;;;;;;;11.94;100.00;96040.75;5045474;28;20204;-69
2023/05/11 02:35:01;;;;;;;2.90;1.80;;;;;;;11.84;100.00;96038.44;5045348;28;20296;-69
2023/05/11 02:37:30;;;;;;;1.60;1.10;;;;;;;12.01;100.00;96031.88;5044460;28;20249;-69
2023/05/11 02:39:59;;;;;;;1.37;0.93;;;;;;;12.01;100.00;96033.72;5045287;28;20212;-68
2023/05/11 02:42:29;;;;;;;1.30;1.20;;;;;;;11.95;100.00;96043.25;5045316;28;20201;-68
2023/05/11 02:45:01;;;;;;;0.90;0.80;;;;;;;11.97;100.00;96029.84;5045096;28;20248;-69
2023/05/11 02:47:30;;;;;;;0.77;0.77;;;;;;;11.97;100.00;96035.91;5044686;28;20658;-69
2023/05/11 02:49:59;;;;;;;1.00;0.70;;;;;;;11.83;100.00;96028.88;5045145;28;20197;-70
2023/05/11 02:52:28;;;;;;;2.50;1.47;;;;;;;11.87;100.00;96040.69;5045053;28;20201;-70
2023/05/11 02:54:57;;;;;;;2.03;1.03;;;;;;;11.90;100.00;96034.22;5044902;28;20212;-69
2023/05/11 02:57:24;;;;;;;1.50;1.10;;;;;;;11.77;100.00;96028.84;5043736;28;20217;-70
2023/05/11 02:59:51;;;;;;;1.40;1.10;;;;;;;11.85;100.00;96026.06;5044814;28;20715;-69
2023/05/11 03:02:18;;;;;;;2.50;1.40;;;;;;;11.81;100.00;96019.53;5044824;28;20232;-68
2023/05/11 03:04:44;;;;;;;0.87;0.80;;;;;;;11.75;100.00;96025.59;5044529;28;20209;-70
2023/05/11 03:07:11;;;;;;;1.80;1.20;;;;;;;11.75;100.00;96025.59;5044368;28;20217;-69
2023/05/11 03:09:38;;;;;;;0.83;0.83;;;;;;;11.80;100.00;96017.88;5044347;28;20201;-69
2023/05/11 03:12:07;;;;;;;0.70;0.70;;;;;;;11.91;100.00;96010.28;5044258;28;20667;-68
2023/05/11 03:14:35;;;;;;;1.03;0.90;;;;;;;11.91;100.00;96009.47;5044546;28;20216;-69
2023/05/11 03:17:02;;;;;;;1.60;1.10;;;;;;;11.76;100.00;96021.91;5044514;28;20697;-68
2023/05/11 03:19:31;;;;;;;1.03;1.00;;;;;;;11.79;100.00;96017.06;5043819;28;20217;-70
2023/05/11 03:21:58;;;;;;;1.13;1.03;;;;;;;11.86;100.00;96022.41;5044330;28;20218;-69
2023/05/11 03:24:26;;;;;;;0.83;0.83;;;;;;;11.90;100.00;96013.94;5044378;28;20658;-69
2023/05/11 03:26:54;;;;;;;3.57;1.57;;;;;;;11.80;100.00;96023.16;5043967;28;20487;-69
2023/05/11 03:29:24;;;;;;;1.17;0.83;;;;;;;11.88;100.00;96012.50;5043468;28;20206;-68
2023/05/11 03:31:51;;;;;;;0.97;0.93;;;;;;;11.80;100.00;96010.78;5044188;28;20497;-69
2023/05/11 03:34:17;;;;;;;1.40;1.27;;;;;;;11.89;100.00;96008.81;5044431;28;20315;-70
2023/05/11 03:36:45;;;;;;;1.50;1.07;;;;;;;11.92;100.00;96013.75;5043629;28;20221;-70
2023/05/11 03:39:14;;;;;;;3.97;1.50;;;;;;;11.78;100.00;96014.63;5043272;28;20316;-68
2023/05/11 03:41:41;;;;;;;1.30;1.00;;;;;;;11.65;100.00;96015.31;5044022;28;20247;-68
2023/05/11 03:44:11;;;;;;;2.47;1.10;;;;;;;11.82;100.00;96011.41;5043870;28;20591;-69
2023/05/11 03:46:41;;;;;;;1.90;1.00;;;;;;;11.87;100.00;96011.66;5044187;28;20221;-70
2023/05/11 03:49:08;;;;;;;1.33;0.87;;;;;;;11.82;100.00;96018.53;5043495;28;20201;-68
2023/05/11 03:51:36;;;;;;;10.07;1.10;;;;;;;11.84;100.00;96016.53;5043723;28;20262;-68
2023/05/11 03:54:02;;;;;;;2.23;1.47;;;;;;;11.89;100.00;96012.31;5043429;28;20201;-69
2023/05/11 03:56:29;;;;;;;1.20;0.90;;;;;;;11.84;100.00;96011.25;5043630;28;20217;-69
2023/05/11 03:58:56;;;;;;;1.57;1.00;;;;;;;11.78;100.00;96009.34;5043050;28;20862;-68
2023/05/11 04:01:23;;;;;;;1.83;1.20;;;;;;;11.87;100.00;96008.22;5043466;28;20204;-68
2023/05/11 04:03:52;;;;;;;1.93;1.47;;;;;;;12.02;100.00;96009.75;5043476;28;20840;-69
2023/05/11 04:06:19;;;;;;;2.67;1.83;;;;;;;11.81;100.00;96009.81;5043621;28;20225;-69
2023/05/11 04:08:47;;;;;;;2.63;1.43;;;;;;;11.92;100.00;96011.09;5042758;28;20197;-69
2023/05/11 04:11:13;;;;;;;2.00;1.03;;;;;;;11.96;100.00;96009.72;5043232;28;20193;-70
2023/05/11 04:13:40;;;;;;;1.67;1.40;;;;;;;11.99;100.00;96009.31;5043610;28;20208;-68
2023/05/11 04:16:07;;;;;;;1.43;1.13;;;;;;;12.14;100.00;96008.22;5043151;28;20229;-69
2023/05/11 04:18:33;;;;;;;2.13;1.03;;;;;;;12.05;100.00;96003.28;5042715;28;20225;-69
2023/05/11 04:21:01;;;;;;;1.10;1.00;;;;;;;11.97;100.00;96008.72;5043349;28;20212;-70
2023/05/11 04:23:28;;;;;;;1.57;1.20;;;;;;;12.02;100.00;96011.59;5043206;28;20220;-69
2023/05/11 04:25:54;;;;;;;1.23;1.13;;;;;;;12.12;100.00;96007.63;5042971;28;20240;-69
2023/05/11 04:28:22;;;;;;;1.67;1.30;;;;;;;12.12;100.00;96009.41;5042702;28;20221;-69
2023/05/11 04:30:53;;;;;;;2.03;1.38;;;;;;;12.25;100.00;96000.59;5043134;28;20208;-70
2023/05/11 04:33:19;;;;;;;2.23;1.93;;;;;;;12.16;100.00;96009.66;5043297;28;20262;-70
2023/05/11 04:35:46;;;;;;;1.93;1.30;;;;;;;12.13;100.00;95997.84;5042760;28;20217;-68
2023/05/11 04:38:14;;;;;;;1.93;1.00;;;;;;;12.16;100.00;96004.38;5041708;28;20232;-69
2023/05/11 04:40:40;;;;;;;0.70;0.70;;;;;;;12.12;100.00;96012.06;5042929;28;20201;-69
2023/05/11 04:43:07;;;;;;;1.93;0.97;;;;;;;12.15;100.00;96006.41;5042554;28;20670;-70
2023/05/11 04:45:33;;;;;;;1.40;0.90;;;;;;;12.10;100.00;96008.81;5042840;28;20204;-69
2023/05/11 04:48:00;;;;;;;1.20;1.10;;;;;;;12.07;100.00;96015.28;5041608;28;20209;-70
2023/05/11 04:50:26;;;;;;;2.07;1.73;;;;;;;12.19;100.00;96008.47;5042461;28;20205;-70
2023/05/11 04:52:53;;;;;;;1.70;0.93;;;;;;;12.07;100.00;96007.38;5042640;28;20216;-69
2023/05/11 04:55:21;;;;;;;1.30;0.67;;;;;;;12.17;100.00;96003.38;5042509;28;20212;-70
2023/05/11 04:57:47;;;;;;;1.93;1.27;;;;;;;12.09;100.00;96015.09;5041936;28;20284;-70
2023/05/11 05:00:15;;;;;;;1.43;1.20;;;;;;;12.15;100.00;96009.06;5042424;28;20220;-70
2023/05/11 05:02:41;;;;;;;1.73;1.10;;;;;;;12.17;100.00;96016.59;5042824;28;20206;-70
2023/05/11 05:05:09;;;;;;;0.80;0.80;;;;;;;12.03;100.00;96002.66;5042351;28;20209;-69
2023/05/11 05:07:36;;;;;;;1.47;1.10;;;;;;;11.99;100.00;96017.25;5041750;28;20264;-69
2023/05/11 05:10:07;;;;;;;1.00;0.90;;;;;;;12.04;100.00;96014.84;5042486;28;20204;-68
2023/05/11 05:12:35;;;;;;;2.53;1.00;;;;;;;12.15;100.00;96011.69;5042611;28;20198;-70
2023/05/11 05:15:02;;;;;;;1.07;1.00;;;;;;;12.13;100.00;96008.41;5042463;28;20209;-68
2023/05/11 05:17:28;;;;;;;0.80;0.80;;;;;;;12.04;100.00;96009.56;5042183;28;20213;-70
2023/05/11 05:19:55;;;;;;;0.77;0.77;;;;;;;12.09;100.00;96010.63;5042031;28;20274;-69
2023/05/11 05:22:21;;;;;;;3.13;1.60;;;;;;;12.06;100.00;96013.66;5042512;28;20204;-69
2023/05/11 05:24:48;;;;;;;3.97;1.30;;;;;;;11.99;100.00;96006.69;5042235;28;20212;-70
2023/05/11 05:27:14;;;;;;;1.00;1.00;;;;;;;11.98;100.00;96015.63;5042151;28;20228;-68
2023/05/11 05:29:42;;;;;;;1.40;1.13;;;;;;;12.20;100.00;96010.91;5043868;28;20201;-69
2023/05/11 05:32:08;;;;;;;4.77;1.40;;;;;;;12.07;100.00;96012.66;5043972;28;20205;-70
2023/05/11 05:34:35;;;;;;;1.00;0.93;;;;;;;12.15;100.00;96016.97;5044700;28;20197;-68
2023/05/11 05:37:01;;;;;;;2.67;1.40;;;;;;;12.07;100.00;96020.56;5044383;28;20298;-68
2023/05/11 05:39:28;;;;;;;1.50;1.10;;;;;;;12.12;100.00;96019.97;5043758;28;20570;-68
2023/05/11 05:41:54;;;;;;;1.00;0.90;;;;;;;12.18;100.00;96018.22;5044180;28;20744;-70
2023/05/11 05:44:21;;;;;;;1.37;0.93;;;;;;;12.14;100.00;96016.16;5044108;28;20205;-69
2023/05/11 05:46:49;;;;;;;1.57;1.27;;;;;;;12.25;100.00;96013.00;5043968;28;20225;-72
2023/05/11 05:49:16;;;;;;;1.20;0.97;;;;;;;12.11;100.00;96019.19;5042627;28;20203;-70
2023/05/11 05:51:42;;;;;;;2.90;1.20;;;;;;;12.16;100.00;96023.91;5042240;28;20209;-69
2023/05/11 05:54:09;;;;;;;4.20;1.20;;;;;;;11.99;100.00;96023.34;5042022;28;20208;-70
2023/05/11 05:56:36;;;;;;;0.90;0.90;;;;;;;12.16;100.00;96025.50;5042190;28;20582;-69
2023/05/11 05:59:03;;;;;;;1.23;1.00;;;;;;;12.17;100.00;96029.00;5043971;28;20732;-70
2023/05/11 06:01:30;;;;;;;2.37;1.93;;;;;;;12.33;100.00;96020.75;5045490;28;20919;-70
2023/05/11 06:03:57;;;;;;;3.50;1.37;;;;;;;12.30;100.00;96021.97;5045920;28;20213;-69
2023/05/11 06:06:24;;;;;;;1.73;1.40;;;;;;;12.26;100.00;96025.19;5045954;28;20603;-70
2023/05/11 06:08:51;;;;;;;2.33;1.03;;;;;;;12.34;100.00;96023.22;5045271;28;20295;-69
2023/05/11 06:11:17;;;;;;;1.43;1.33;;;;;;;12.24;100.00;96027.19;5045578;28;20209;-69
2023/05/11 06:13:44;;;;;;;1.27;1.07;;;;;;;12.38;100.00;96027.09;5045867;28;20216;-70
2023/05/11 06:16:10;;;;;;;1.63;1.30;;;;;;;12.42;100.00;96020.44;5045084;28;20229;-69
2023/05/11 06:18:37;;;;;;;2.50;1.37;;;;;;;12.46;100.00;96028.78;5045138;28;20212;-69
2023/05/11 06:21:05;;;;;;;1.40;1.17;;;;;;;12.55;100.00;96025.81;5045526;28;20210;-69
2023/05/11 06:23:31;;;;;;;2.93;1.27;;;;;;;12.45;100.00;96025.31;5045611;28;20224;-70
2023/05/11 06:25:58;;;;;;;2.60;1.50;;;;;;;12.52;100.00;96025.38;5045348;28;20240;-70
2023/05/11 06:28:24;;;;;;;1.73;1.03;;;;;;;12.45;100.00;96020.03;5044711;28;20688;-70
2023/05/11 06:30:51;;;;;;;2.63;1.47;;;;;;;12.42;100.00;96023.09;5045082;28;20205;-69
2023/05/11 06:33:17;;;;;;;2.97;1.50;;;;;;;12.37;100.00;96022.84;5045522;28;20594;-70
2023/05/11 06:35:44;;;;;;;4.03;1.77;;;;;;;12.41;100.00;96026.72;5045283;28;20221;-69
2023/05/11 06:38:12;;;;;;;2.53;1.33;;;;;;;12.43;100.00;96027.34;5044492;28;20205;-68
2023/05/11 06:40:38;;;;;;;2.40;1.37;;;;;;;12.48;100.00;96018.84;5045048;28;20571;-69
2023/05/11 06:43:05;;;;;;;1.60;1.37;;;;;;;12.45;100.00;96027.16;5045485;28;20213;-69
2023/05/11 06:45:31;;;;;;;3.40;1.30;;;;;;;12.43;100.00;96024.69;5044728;28;20308;-69
2023/05/11 06:47:58;;;;;;;2.20;1.33;;;;;;;12.52;100.00;96017.44;5044651;28;20205;-69
2023/05/11 06:50:24;;;;;;;2.43;1.30;;;;;;;12.52;100.00;96012.97;5044996;28;20204;-67
2023/05/11 06:52:51;;;;;;;1.20;1.10;;;;;;;12.63;100.00;96019.56;5044694;28;20677;-69
2023/05/11 06:55:19;;;;;;;1.13;1.00;;;;;;;12.66;100.00;96014.66;5045011;28;20585;-69
2023/05/11 06:57:45;;;;;;;2.80;1.00;;;;;;;12.44;100.00;96007.03;5043748;28;20201;-69
2023/05/11 07:00:12;;;;;;;1.23;1.10;;;;;;;12.64;100.00;96013.22;5044456;28;20221;-67
2023/05/11 07:02:39;;;;;;;1.43;1.33;;;;;;;12.42;100.00;96009.03;5044906;28;20204;-69
2023/05/11 07:05:06;;;;;;;4.17;1.73;;;;;;;12.44;100.00;96018.41;5044161;28;20206;-69
2023/05/11 07:07:32;;;;;;;1.30;1.13;;;;;;;12.42;100.00;96019.59;5043772;28;20721;-69
2023/05/11 07:09:59;;;;;;;1.60;0.90;;;;;;;12.47;100.00;96018.00;5043911;28;20197;-69
2023/05/11 07:12:26;;;;;;;1.87;1.50;;;;;;;12.55;100.00;96014.41;5044306;28;20201;-69
2023/05/11 07:14:53;;;;;;;1.37;1.13;;;;;;;12.59;100.00;96016.47;5044429;28;20213;-68
2023/05/11 07:17:19;;;;;;;1.13;0.90;;;;;;;12.55;100.00;96020.53;5044076;28;20225;-69
2023/05/11 07:19:46;;;;;;;0.90;0.90;;;;;;;12.54;100.00;96024.16;5044268;28;20220;-68
2023/05/11 07:22:12;;;;;;;1.77;0.80;;;;;;;12.43;100.00;96024.69;5044206;28;20209;-69
2023/05/11 07:24:39;;;;;;;1.83;1.13;;;;;;;12.49;100.00;96021.28;5044560;28;20209;-69
2023/05/11 07:27:05;;;;;;;0.83;0.80;;;;;;;12.61;100.00;96019.72;5043957;28;20232;-68
2023/05/11 07:29:33;;;;;;;0.63;0.63;;;;;;;12.52;100.00;96017.44;5043579;28;20653;-69
2023/05/11 07:31:59;;;;;;;1.20;0.83;;;;;;;12.46;100.00;96026.13;5044380;28;20302;-70
2023/05/11 07:34:26;;;;;;;1.37;1.20;;;;;;;12.68;100.00;96017.94;5044117;28;20205;-68
2023/05/11 07:36:52;;;;;;;1.07;0.73;;;;;;;12.66;100.00;96021.81;5044156;28;20221;-68
2023/05/11 07:39:19;;;;;;;1.10;0.87;;;;;;;12.76;100.00;96024.91;5043444;28;20720;-69
2023/05/11 07:41:46;;;;;;;1.70;1.23;;;;;;;12.76;100.00;96021.22;5043607;28;20469;-69
2023/05/11 07:44:12;;;;;;;2.58;0.95;;;;;;;12.83;100.00;96014.16;5044248;28;20205;-69
2023/05/11 07:46:40;;;;;;;1.45;1.23;;;;;;;13.01;100.00;96019.78;5043752;28;20713;-68
2023/05/11 07:49:07;;;;;;;1.50;1.02;;;;;;;13.04;100.00;96018.56;5043264;28;20213;-69
2023/05/11 07:51:34;;;;;;;1.30;0.83;;;;;;;13.12;100.00;96024.53;5043648;28;20236;-69
2023/05/11 07:54:01;;;;;;;2.47;1.05;;;;;;;13.21;100.00;96017.19;5043845;28;20208;-70
2023/05/11 07:56:27;;;;;;;4.47;1.08;;;;;;;13.27;100.00;96024.34;5043469;28;20706;-69
2023/05/11 07:58:54;;;;;;;0.80;0.80;;;;;;;13.36;100.00;96021.31;5043075;28;20843;-68
2023/05/11 08:01:21;;;;;;;0.90;0.88;;;;;;;13.11;100.00;96022.88;5043315;28;20240;-69
2023/05/11 08:03:48;;;;;;;1.52;0.70;;;;;;;13.32;100.00;96020.09;5043281;28;20670;-69
2023/05/11 08:06:15;;;;;;;1.97;1.10;;;;;;;13.36;100.00;96015.22;5043227;28;20240;-68
2023/05/11 08:08:41;;;;;;;2.58;1.05;;;;;;;13.42;100.00;96018.69;5042977;28;20220;-69
2023/05/11 08:11:09;;;;;;;1.07;0.73;;;;;;;13.52;100.00;96011.19;5043267;28;20197;-69
2023/05/11 08:13:35;;;;;;;0.85;0.70;;;;;;;13.39;100.00;96021.75;5043360;28;20204;-69
2023/05/11 08:16:01;;;;;;;1.27;1.20;;;;;;;13.32;100.00;96021.94;5043462;28;20233;-70
2023/05/11 08:18:28;;;;;;;1.40;1.15;;;;;;;13.40;100.00;96017.25;5042572;28;20204;-70
2023/05/11 08:20:56;;;;;;;1.77;1.45;;;;;;;13.53;100.00;96019.94;5042896;28;20587;-70
2023/05/11 08:23:22;;;;;;;3.10;1.20;;;;;;;13.44;100.00;96021.97;5042923;28;20212;-70
2023/05/11 08:25:51;;;;;;;1.37;0.80;;;;;;;13.58;100.00;96010.41;5042980;28;20221;-69
2023/05/11 08:28:17;;;;;;;0.77;0.77;;;;;;;13.44;100.00;96016.69;5042537;28;20647;-70
2023/05/11 08:30:44;;;;;;;1.17;0.80;;;;;;;13.43;100.00;96017.69;5043098;28;20197;-70
2023/05/11 08:33:10;;;;;;;1.17;1.02;;;;;;;13.26;100.00;96018.22;5042860;28;20220;-69
2023/05/11 08:35:38;;;;;;;0.77;0.77;;;;;;;13.31;100.00;96012.38;5042872;28;20527;-69
2023/05/11 08:38:06;;;;;;;0.80;0.80;;;;;;;13.30;100.00;96016.00;5042301;28;20212;-69
2023/05/11 08:40:33;;;;;;;0.98;0.80;;;;;;;13.26;100.00;96018.22;5042941;28;20275;-70
2023/05/11 08:43:00;;;;;;;2.38;1.30;;;;;;;13.34;100.00;96017.25;5042666;28;20205;-69
2023/05/11 08:45:27;;;;;;;1.70;1.15;;;;;;;13.28;100.00;96018.06;5042845;28;20197;-69
2023/05/11 08:47:54;;;;;;;1.10;1.00;;;;;;;13.31;100.00;96015.00;5042375;28;20216;-68
2023/05/11 08:50:22;;;;;;;1.98;1.33;;;;;;;13.15;100.00;96018.00;5042423;28;20197;-68
2023/05/11 08:52:48;;;;;;;2.20;1.20;;;;;;;13.34;100.00;96014.59;5042719;28;20201;-70
2023/05/11 08:55:17;;;;;;;1.20;0.98;;;;;;;13.41;100.00;96022.34;5042752;28;20197;-70
2023/05/11 08:57:45;;;;;;;2.05;1.02;;;;;;;13.54;100.00;96022.41;5042130;28;20213;-71
2023/05/11 09:00:12;;;;;;;1.43;0.93;;;;;;;13.60;100.00;96020.78;5042304;28;21146;-68
2023/05/11 09:02:39;;;;;;;0.70;0.70;;;;;;;13.57;100.00;96019.34;5042744;28;20657;-70
2023/05/11 09:05:07;;;;;;;2.25;1.42;;;;;;;13.65;100.00;96021.00;5042511;28;20205;-68
2023/05/11 09:07:37;;;;;;;1.67;1.13;;;;;;;13.72;100.00;96014.72;5042004;28;20229;-69
2023/05/11 09:10:04;;;;;;;2.13;0.98;;;;;;;13.59;100.00;96017.34;5042479;28;20208;-69
2023/05/11 09:12:32;;;;;;;1.65;0.82;;;;;;;13.55;100.00;96016.06;5042239;28;20212;-70
2023/05/11 09:14:58;;;;;;;0.55;0.55;;;;;;;13.46;100.00;96017.28;5042540;28;20213;-70
2023/05/11 09:17:27;;;;;;;0.90;0.75;;;;;;;13.37;100.00;96020.31;5041709;28;20228;-69
2023/05/11 09:19:59;;;;;;;1.75;0.90;;;;;;;13.65;100.00;96023.66;5042291;28;20278;-70
2023/05/11 09:22:25;;;;;;;1.25;1.00;;;;;;;13.53;100.00;96023.44;5042414;28;20213;-69
2023/05/11 09:24:52;;;;;;;1.17;0.82;;;;;;;13.67;100.00;96025.09;5042264;28;20201;-69
2023/05/11 09:27:19;;;;;;;1.55;1.13;;;;;;;13.84;100.00;96020.22;5041663;28;20499;-68
2023/05/11 09:29:47;;;;;;;1.40;0.98;;;;;;;14.01;100.00;96019.63;5041710;28;20201;-69
2023/05/11 09:32:15;;;;;;;0.93;0.70;;;;;;;14.03;100.00;96021.03;5042061;28;20592;-70
2023/05/11 09:34:41;;;;;;;0.73;0.70;;;;;;;14.16;100.00;96015.78;5045970;28;20193;-69
2023/05/11 09:37:16;;;;;;;1.67;0.80;;;;;;;14.29;100.00;96015.78;5046235;28;20232;-68
2023/05/11 09:39:42;;;;;;;1.27;0.80;;;;;;;14.10;100.00;96013.97;5046114;28;20218;-70
2023/05/11 09:42:16;;;;;;;1.27;1.05;;;;;;;14.33;100.00;96006.41;5045988;28;20212;-68
2023/05/11 09:44:43;;;;;;;0.90;0.90;;;;;;;14.16;100.00;96014.97;5046355;28;20572;-70
2023/05/11 09:47:13;;;;;;;1.58;0.73;;;;;;;14.06;100.00;96009.22;5045799;28;20728;-70
2023/05/11 09:49:42;;;;;;;1.42;0.88;;;;;;;14.08;100.00;96012.53;5045672;28;20204;-69
2023/05/11 09:52:09;;;;;;;1.27;0.90;;;;;;;14.31;100.00;96002.34;5045990;28;20292;-70
2023/05/11 09:54:42;;;;;;;0.70;0.68;;;;;;;14.38;100.00;96008.44;5046010;28;20204;-69
2023/05/11 09:57:22;;;;;;;1.15;1.00;;;;;;;14.45;100.00;95999.47;5045526;28;20791;-69
2023/05/11 09:59:49;;;;;;;0.80;0.65;;;;;;;14.29;100.00;96012.31;5045741;28;20209;-70
2023/05/11 10:02:22;;;;;;;0.60;0.60;;;;;;;14.38;100.00;95997.81;5046247;28;20201;-69
2023/05/11 10:04:49;;;;;;;1.98;1.10;;;;;;;14.31;100.00;96005.00;5045515;28;20209;-70
2023/05/11 10:07:27;;;;;;;0.68;0.68;;;;;;;14.37;100.00;95998.84;5045140;28;20213;-69
2023/05/11 10:09:55;;;;;;;0.55;0.50;;;;;;;14.34;100.00;96001.91;5045864;28;20205;-70
2023/05/11 10:12:23;;;;;;;0.70;0.50;;;;;;;14.23;100.00;96006.00;5045759;28;20201;-69
2023/05/11 10:14:52;;;;;;;0.60;0.60;;;;;;;14.31;100.00;96003.13;5045370;28;20205;-70
2023/05/11 10:17:20;;;;;;;0.85;0.80;;;;;;;14.31;100.00;95997.03;5044840;28;20231;-70
2023/05/11 10:19:48;;;;;;;0.60;0.60;;;;;;;14.28;100.00;95997.44;5045477;28;20228;-69
2023/05/11 10:22:15;;;;;;;0.75;0.63;;;;;;;14.30;100.00;95996.19;5045668;28;20232;-70
2023/05/11 10:24:42;;;;;;;0.60;0.60;;;;;;;14.01;100.00;95991.31;5045748;28;20201;-69
2023/05/11 10:27:10;;;;;;;0.70;0.70;;;;;;;14.01;100.00;95995.78;5044974;28;20244;-69
2023/05/11 10:29:37;;;;;;;0.45;0.40;;;;;;;13.86;100.00;95992.53;5045169;28;20201;-69
2023/05/11 10:32:06;;;;;;;0.60;0.60;;;;;;;14.10;100.00;95986.63;5045404;28;20205;-70
2023/05/11 10:34:34;;;;;;;0.30;0.30;;;;;;;14.12;100.00;95987.25;5045181;28;20212;-70
2023/05/11 10:37:01;;;;;;;0.68;0.60;;;;;;;13.81;100.00;95989.66;5045210;28;20597;-69
2023/05/11 10:39:28;;;;;;;0.60;0.60;;;;;;;13.94;100.00;95984.38;5044662;28;20197;-69
2023/05/11 10:42:08;;;;;;;0.82;0.70;;;;;;;14.24;100.00;95986.44;5044816;28;20713;-70
2023/05/11 10:45:00;;;;;;;0.65;0.65;;;;;;;14.03;100.00;95988.44;5044028;28;20676;-69
2023/05/11 10:47:56;;;;;;;0.50;0.50;;;;;;;14.36;100.00;95986.63;5044163;28;20230;-69
2023/05/11 10:50:47;;;;;;;0.40;0.40;;;;;;;14.41;100.00;95992.09;5045131;28;20205;-69
2023/05/11 10:53:26;;;;;;;0.40;0.40;;;;;;;14.15;100.00;95992.13;5044722;28;20209;-69
2023/05/11 10:56:19;;;;;;;0.40;0.40;;;;;;;14.42;100.00;95985.78;5044493;28;20721;-68
2023/05/11 10:59:03;;;;;;;0.30;0.30;;;;;;;14.55;100.00;95978.63;5044374;28;20719;-70
2023/05/11 11:01:38;;;;;;;0.30;0.30;;;;;;;14.53;100.00;95985.97;5044361;28;20596;-70
2023/05/11 11:04:07;;;;;;;0.50;0.50;;;;;;;14.42;100.00;95977.84;5044779;28;20270;-69
2023/05/11 11:06:36;;;;;;;0.40;0.40;;;;;;;14.60;99.21;95980.66;5044821;28;20217;-70
2023/05/11 11:09:06;;;;;;;0.75;0.50;;;;;;;14.49;98.71;95981.31;5044096;28;20584;-70
2023/05/11 11:11:35;;;;;;;0.40;0.40;;;;;;;14.79;94.58;95975.28;5044526;28;20293;-69
2023/05/11 11:14:04;;;;;;;0.30;0.30;;;;;;;14.68;100.00;95982.06;5044484;28;20216;-69
2023/05/11 11:16:31;;;;;;;0.35;0.30;;;;;;;14.75;99.33;95982.03;5044940;28;20231;-68
2023/05/11 11:19:35;;;;;;;0.60;0.40;;;;;;;15.05;100.00;95978.69;5044027;28;20209;-69
2023/05/11 11:22:03;;;;;;;0.40;0.40;;;;;;;14.88;98.87;95974.88;5044437;28;20228;-69
2023/05/11 11:24:46;;;;;;;0.40;0.38;;;;;;;15.11;96.65;95980.50;5044214;28;20737;-69
2023/05/11 11:27:14;;;;;;;0.40;0.40;;;;;;;14.68;94.27;95981.25;5044125;28;20239;-69
2023/05/11 11:29:41;;;;;;;0.30;0.30;;;;;;;14.96;98.31;95981.78;5044483;28;20209;-69